Time;durP1;ratioP1;P1;durP2;ratioP2;P2;SDS_P1;SDS_P2;PMS_P1;PMS_P2;Temp;Humidity;BMP_temperature;BMP_pressure;BME280_temperature;BME280_humidity;BME280_pressure;Samples;Min_cycle;Max_cycle;Signal;HPM_P1;HPM_P2
2023/01/21 00:02:11;;;;;;;45.63;30.57;;;;;;;-1.01;100.00;102422.63;5253784;28;20040;-74
2023/01/21 00:04:42;;;;;;;48.50;31.17;;;;;;;-0.80;100.00;102418.59;5250552;28;20068;-80
2023/01/21 00:07:13;;;;;;;44.97;30.67;;;;;;;-0.85;100.00;102417.69;5239734;28;20021;-78
2023/01/21 00:09:45;;;;;;;43.70;30.70;;;;;;;-0.79;100.00;102427.19;5237262;28;20048;-78
2023/01/21 00:12:16;;;;;;;44.73;30.07;;;;;;;-1.04;100.00;102422.56;5231239;28;20053;-79
2023/01/21 00:14:47;;;;;;;45.43;31.67;;;;;;;-0.78;100.00;102444.34;5243439;28;20739;-76
2023/01/21 00:17:18;;;;;;;48.63;32.57;;;;;;;-0.81;100.00;102440.06;5241595;28;20161;-73
2023/01/21 00:19:50;;;;;;;48.90;31.33;;;;;;;-0.79;100.00;102443.50;5234192;28;20133;-77
2023/01/21 00:22:21;;;;;;;47.97;31.07;;;;;;;-0.79;100.00;102448.66;5239173;28;20032;-71
2023/01/21 00:24:52;;;;;;;51.10;32.57;;;;;;;-0.89;100.00;102446.81;5242061;28;20069;-78
2023/01/21 00:27:23;;;;;;;47.63;31.40;;;;;;;-0.79;100.00;102453.81;5242708;28;20033;-80
2023/01/21 00:29:55;;;;;;;46.97;31.03;;;;;;;-0.82;100.00;102458.03;5240507;28;20029;-73
2023/01/21 00:32:26;;;;;;;51.47;33.57;;;;;;;-0.91;100.00;102451.06;5237899;28;20059;-76
2023/01/21 00:34:57;;;;;;;47.83;31.17;;;;;;;-0.96;100.00;102450.97;5230766;28;20040;-77
2023/01/21 00:37:29;;;;;;;47.67;31.90;;;;;;;-0.84;100.00;102457.16;5236277;28;20056;-75
2023/01/21 00:40:00;;;;;;;48.63;32.20;;;;;;;-1.06;100.00;102460.25;5242385;28;20036;-70
2023/01/21 00:42:31;;;;;;;51.60;33.73;;;;;;;-0.84;100.00;102465.75;5239221;28;20037;-81
2023/01/21 00:45:03;;;;;;;55.97;33.93;;;;;;;-0.86;100.00;102472.56;5230307;28;20160;-70
2023/01/21 00:47:34;;;;;;;46.33;31.93;;;;;;;-0.80;100.00;102472.63;5243357;28;20036;-77
2023/01/21 00:50:07;;;;;;;54.27;35.83;;;;;;;-1.03;100.00;102470.59;5243012;28;20056;-78
2023/01/21 00:52:38;;;;;;;53.97;33.60;;;;;;;-0.88;100.00;102479.38;5234034;28;20037;-78
2023/01/21 00:55:10;;;;;;;54.33;33.60;;;;;;;-0.84;100.00;102488.91;5238727;28;20602;-72
2023/01/21 00:57:41;;;;;;;52.77;32.40;;;;;;;-1.05;100.00;102472.28;5226743;28;20045;-73
2023/01/21 01:00:13;;;;;;;52.30;34.23;;;;;;;-0.94;100.00;102489.59;5224289;28;20053;-81
2023/01/21 01:02:45;;;;;;;54.47;33.63;;;;;;;-0.96;100.00;102506.72;5242608;28;20116;-74
2023/01/21 01:05:18;;;;;;;52.10;33.23;;;;;;;-0.99;100.00;102512.66;5240543;28;20025;-75
2023/01/21 01:07:49;;;;;;;57.30;34.03;;;;;;;-1.04;100.00;102515.16;5242494;28;20849;-77
2023/01/21 01:10:21;;;;;;;48.07;33.00;;;;;;;-1.27;100.00;102528.50;5242497;28;20104;-70
2023/01/21 01:12:52;;;;;;;48.53;31.83;;;;;;;-1.16;100.00;102512.38;5241236;28;20597;-77
2023/01/21 01:15:23;;;;;;;49.50;32.00;;;;;;;-1.01;100.00;102525.50;5234817;28;21660;-72
2023/01/21 01:17:55;;;;;;;50.83;35.20;;;;;;;-1.11;100.00;102531.31;5249041;28;20040;-75
2023/01/21 01:20:26;;;;;;;49.93;32.07;;;;;;;-1.00;100.00;102534.97;5263276;28;20029;-80
2023/01/21 01:22:57;;;;;;;54.97;35.67;;;;;;;-0.96;100.00;102542.72;5269317;28;20159;-73
2023/01/21 01:25:28;;;;;;;53.63;34.77;;;;;;;-0.97;100.00;102541.84;5258736;28;20021;-78
2023/01/21 01:28:00;;;;;;;45.80;31.77;;;;;;;-1.07;100.00;102555.41;5250219;28;20032;-79
2023/01/21 01:30:33;;;;;;;51.70;34.83;;;;;;;-1.18;100.00;102560.34;5264912;28;20043;-72
2023/01/21 01:33:05;;;;;;;54.57;35.40;;;;;;;-1.10;100.00;102575.06;5270382;28;20036;-79
2023/01/21 01:35:36;;;;;;;60.17;36.60;;;;;;;-1.01;100.00;102571.78;5275021;28;20475;-75
2023/01/21 01:38:08;;;;;;;54.90;33.83;;;;;;;-1.28;100.00;102574.75;5270942;28;20028;-76
2023/01/21 01:40:40;;;;;;;59.30;36.13;;;;;;;-1.15;100.00;102576.69;5260614;28;20025;-79
2023/01/21 01:43:18;;;;;;;52.63;33.23;;;;;;;-1.09;100.00;102588.81;5276472;28;20024;-73
2023/01/21 01:45:50;;;;;;;53.87;36.10;;;;;;;-1.22;100.00;102587.72;5274160;28;20066;-78
2023/01/21 01:48:24;;;;;;;60.03;38.33;;;;;;;-1.04;100.00;102596.59;5256582;28;20473;-80
2023/01/21 01:50:59;;;;;;;59.70;36.55;;;;;;;-1.27;100.00;102600.50;5256690;28;20503;-74
2023/01/21 01:53:32;;;;;;;60.30;39.03;;;;;;;-1.13;100.00;102597.28;5254404;28;20111;-81
2023/01/21 01:56:03;;;;;;;56.17;39.20;;;;;;;-1.26;100.00;102603.94;5273823;28;20470;-74
2023/01/21 01:58:36;;;;;;;58.30;36.77;;;;;;;-1.62;100.00;102587.81;5254866;28;20111;-75
2023/01/21 02:01:07;;;;;;;54.83;36.87;;;;;;;-1.61;100.00;102600.72;5254004;28;20036;-77
2023/01/21 02:03:44;;;;;;;58.87;37.20;;;;;;;-1.34;100.00;102598.63;5263146;28;20039;-75
2023/01/21 02:06:17;;;;;;;64.30;40.03;;;;;;;-1.37;100.00;102611.44;5251708;28;20609;-78
2023/01/21 02:08:50;;;;;;;56.20;37.17;;;;;;;-1.38;100.00;102607.16;5256796;28;20020;-79
2023/01/21 02:11:21;;;;;;;65.37;38.80;;;;;;;-1.37;100.00;102603.72;5271432;28;20049;-81
2023/01/21 02:13:56;;;;;;;61.83;39.80;;;;;;;-1.37;100.00;102612.31;5254277;28;20040;-70
2023/01/21 02:16:36;;;;;;;64.13;40.07;;;;;;;-1.22;100.00;102616.00;5256408;28;20394;-80
2023/01/21 02:19:47;;;;;;;66.40;42.03;;;;;;;-1.12;100.00;102627.34;5273366;28;20114;-81
2023/01/21 02:22:26;;;;;;;66.10;41.53;;;;;;;-1.11;100.00;102634.19;5257185;28;20567;-81
2023/01/21 02:25:28;;;;;;;66.80;40.60;;;;;;;-1.07;100.00;102638.56;5260695;28;20021;-80
2023/01/21 02:28:38;;;;;;;63.80;41.20;;;;;;;-1.18;100.00;102640.06;5253775;28;20474;-80
2023/01/21 02:31:28;;;;;;;65.50;43.30;;;;;;;-1.24;100.00;102641.69;5231791;28;20034;-80
2023/01/21 02:34:08;;;;;;;64.53;39.70;;;;;;;-1.39;100.00;102642.25;5265966;28;20024;-75
2023/01/21 02:36:45;;;;;;;68.30;41.73;;;;;;;-1.41;100.00;102622.50;5253483;28;20155;-76
2023/01/21 02:39:19;;;;;;;61.20;39.53;;;;;;;-1.26;100.00;102638.25;5270303;28;20115;-70
2023/01/21 02:42:05;;;;;;;66.93;42.70;;;;;;;-1.46;100.00;102640.41;5252392;28;20029;-72
2023/01/21 02:44:40;;;;;;;68.73;43.10;;;;;;;-1.27;100.00;102649.34;5254622;28;20392;-79
2023/01/21 02:47:17;;;;;;;71.77;45.17;;;;;;;-1.39;100.00;102651.66;5263184;28;20119;-75
2023/01/21 02:49:57;;;;;;;73.07;45.30;;;;;;;-1.24;100.00;102651.13;5274660;28;20592;-81
2023/01/21 02:52:29;;;;;;;66.27;42.83;;;;;;;-1.50;100.00;102648.91;5255007;28;20086;-81
2023/01/21 02:55:01;;;;;;;69.60;45.37;;;;;;;-1.27;100.00;102663.88;5265721;28;20422;-75
2023/01/21 02:57:42;;;;;;;71.47;44.80;;;;;;;-1.23;100.00;102664.00;5271903;28;20033;-71
2023/01/21 03:00:25;;;;;;;74.17;44.50;;;;;;;-1.27;100.00;102666.47;5265070;28;20025;-81
2023/01/21 03:03:10;;;;;;;76.13;47.63;;;;;;;-1.30;100.00;102672.44;5252925;28;20486;-81
2023/01/21 03:05:47;;;;;;;72.47;46.73;;;;;;;-1.26;100.00;102675.94;5253127;28;20032;-81
2023/01/21 03:08:40;;;;;;;75.17;47.17;;;;;;;-1.32;100.00;102673.22;5268855;28;20032;-80
2023/01/21 03:11:15;;;;;;;72.67;46.13;;;;;;;-1.27;100.00;102677.63;5274478;28;20498;-71
2023/01/21 03:16:57;;;;;;;78.70;44.33;;;;;;;-1.62;100.00;102677.75;5261637;28;20377;-81
2023/01/21 03:19:43;;;;;;;69.33;45.97;;;;;;;-1.46;100.00;102682.41;5253419;28;20059;-78
2023/01/21 03:22:20;;;;;;;70.03;45.43;;;;;;;-1.51;100.00;102684.00;5268055;28;20025;-75
2023/01/21 03:24:53;;;;;;;77.47;48.30;;;;;;;-1.52;100.00;102676.28;5273103;28;20115;-76
2023/01/21 03:27:29;;;;;;;81.47;49.20;;;;;;;-1.50;100.00;102684.88;5252991;28;20045;-81
2023/01/21 03:30:22;;;;;;;80.53;50.10;;;;;;;-1.49;100.00;102692.63;5251620;28;20070;-75
2023/01/21 03:32:56;;;;;;;74.70;44.77;;;;;;;-1.50;100.00;102687.47;5254421;28;20036;-83
2023/01/21 03:35:42;;;;;;;78.40;49.17;;;;;;;-1.61;100.00;102692.38;5253429;28;20082;-81
2023/01/21 03:38:25;;;;;;;83.83;49.47;;;;;;;-1.44;100.00;102694.41;5251934;28;20068;-74
2023/01/21 03:41:02;;;;;;;78.60;47.10;;;;;;;-1.45;100.00;102698.69;5254902;28;20032;-80
2023/01/21 03:43:34;;;;;;;78.03;49.10;;;;;;;-1.46;100.00;102690.13;5254170;28;20026;-80
2023/01/21 03:46:11;;;;;;;73.80;45.37;;;;;;;-1.48;100.00;102706.31;5251997;28;20028;-77
2023/01/21 03:48:46;;;;;;;74.13;45.30;;;;;;;-1.41;100.00;102707.31;5252426;28;20025;-77
2023/01/21 03:51:23;;;;;;;68.53;41.40;;;;;;;-1.67;100.00;102708.50;5253720;28;20021;-76
2023/01/21 03:53:55;;;;;;;68.73;43.47;;;;;;;-1.54;100.00;102699.38;5254060;28;20040;-76
2023/01/21 03:56:27;;;;;;;65.87;43.60;;;;;;;-1.53;100.00;102716.50;5252121;28;20060;-80
2023/01/21 03:58:59;;;;;;;66.57;43.73;;;;;;;-1.43;100.00;102721.84;5268041;28;20060;-78
2023/01/21 04:01:30;;;;;;;72.73;44.47;;;;;;;-1.45;100.00;102719.25;5252460;28;20025;-76
2023/01/21 04:04:01;;;;;;;64.07;42.67;;;;;;;-1.42;100.00;102721.00;5254332;28;20036;-76
2023/01/21 04:06:33;;;;;;;70.17;42.00;;;;;;;-1.39;100.00;102723.66;5252620;28;20107;-72
2023/01/21 04:09:05;;;;;;;66.63;42.93;;;;;;;-1.38;100.00;102722.81;5266187;28;20028;-77
2023/01/21 04:11:37;;;;;;;64.40;41.53;;;;;;;-1.51;100.00;102711.41;5273958;28;20465;-80
2023/01/21 04:14:08;;;;;;;63.60;41.30;;;;;;;-1.48;100.00;102725.19;5250458;28;20037;-73
2023/01/21 04:16:39;;;;;;;64.40;40.93;;;;;;;-1.62;100.00;102726.59;5260330;28;20037;-78
2023/01/21 04:19:10;;;;;;;64.30;41.63;;;;;;;-1.51;100.00;102725.13;5259016;28;20028;-74
2023/01/21 04:21:42;;;;;;;64.97;40.33;;;;;;;-1.66;100.00;102724.81;5272677;28;20052;-75
2023/01/21 04:24:13;;;;;;;65.20;41.87;;;;;;;-1.51;100.00;102737.09;5262689;28;20029;-81
2023/01/21 04:26:44;;;;;;;70.00;41.13;;;;;;;-1.51;100.00;102735.41;5251506;28;20064;-79
2023/01/21 04:29:16;;;;;;;66.13;41.70;;;;;;;-1.58;100.00;102720.69;5260331;28;20090;-79
2023/01/21 04:31:47;;;;;;;71.53;41.77;;;;;;;-1.48;100.00;102740.63;5266842;28;20067;-75
2023/01/21 04:34:19;;;;;;;62.43;39.13;;;;;;;-1.48;100.00;102739.72;5255646;28;20056;-76
2023/01/21 04:36:50;;;;;;;63.07;39.57;;;;;;;-1.56;100.00;102720.72;5273085;28;20039;-78
2023/01/21 04:39:21;;;;;;;60.53;38.70;;;;;;;-1.55;100.00;102730.19;5261938;28;20071;-80
2023/01/21 04:41:52;;;;;;;67.63;42.30;;;;;;;-1.52;100.00;102737.94;5265699;28;20694;-73
2023/01/21 04:44:24;;;;;;;59.37;37.47;;;;;;;-1.64;100.00;102736.81;5254732;28;20170;-79
2023/01/21 04:46:55;;;;;;;58.63;37.20;;;;;;;-1.56;100.00;102749.00;5254258;28;20028;-78
2023/01/21 04:49:26;;;;;;;63.77;38.07;;;;;;;-1.66;100.00;102756.50;5273341;28;20082;-76
2023/01/21 04:51:57;;;;;;;64.30;37.30;;;;;;;-1.62;100.00;102757.41;5270075;28;20024;-72
2023/01/21 04:54:29;;;;;;;62.37;37.57;;;;;;;-1.66;100.00;102750.50;5252631;28;20028;-72
2023/01/21 04:57:00;;;;;;;54.67;34.60;;;;;;;-1.75;100.00;102764.88;5266465;28;20032;-78
2023/01/21 04:59:31;;;;;;;58.80;35.53;;;;;;;-1.59;100.00;102765.22;5270954;28;20454;-75
2023/01/21 05:02:03;;;;;;;58.37;38.63;;;;;;;-1.53;100.00;102757.63;5252424;28;20060;-75
2023/01/21 05:04:34;;;;;;;57.37;38.43;;;;;;;-1.83;100.00;102764.69;5251175;28;20024;-68
2023/01/21 05:07:06;;;;;;;56.63;37.40;;;;;;;-1.64;100.00;102771.97;5252058;28;20482;-80
2023/01/21 05:09:37;;;;;;;58.07;35.53;;;;;;;-1.78;100.00;102775.06;5252423;28;20083;-77
2023/01/21 05:12:09;;;;;;;61.20;37.67;;;;;;;-1.75;100.00;102767.44;5256645;28;20041;-75
2023/01/21 05:14:40;;;;;;;59.17;38.93;;;;;;;-1.57;100.00;102778.94;5271794;28;20142;-72
2023/01/21 05:17:11;;;;;;;58.37;36.53;;;;;;;-1.62;100.00;102778.84;5271955;28;20024;-79
2023/01/21 05:19:43;;;;;;;59.73;37.20;;;;;;;-1.61;100.00;102785.75;5262335;28;20054;-80
2023/01/21 05:22:14;;;;;;;56.03;34.33;;;;;;;-1.74;100.00;102774.31;5272821;28;20021;-75
2023/01/21 05:24:45;;;;;;;55.77;36.47;;;;;;;-1.75;100.00;102787.13;5272272;28;20024;-80
2023/01/21 05:27:18;;;;;;;56.17;35.67;;;;;;;-1.78;100.00;102777.63;5271680;28;20029;-78
2023/01/21 05:29:50;;;;;;;61.87;37.17;;;;;;;-1.75;100.00;102793.13;5259794;28;20032;-80
2023/01/21 05:32:21;;;;;;;60.80;36.33;;;;;;;-1.85;100.00;102778.34;5263755;28;20024;-73
2023/01/21 05:34:53;;;;;;;63.73;37.73;;;;;;;-1.75;100.00;102792.25;5272775;28;20036;-70
2023/01/21 05:37:24;;;;;;;60.03;38.80;;;;;;;-1.67;100.00;102805.28;5262522;28;20470;-77
2023/01/21 05:39:55;;;;;;;58.97;37.30;;;;;;;-1.90;100.00;102779.94;5274107;28;20465;-80
2023/01/21 05:42:27;;;;;;;61.07;36.73;;;;;;;-1.77;100.00;102797.38;5254708;28;20063;-73
2023/01/21 05:45:00;;;;;;;57.50;36.17;;;;;;;-1.88;100.00;102815.09;5250360;28;20033;-81
2023/01/21 05:47:31;;;;;;;59.23;38.73;;;;;;;-1.75;100.00;102811.13;5251733;28;20028;-73
2023/01/21 05:50:03;;;;;;;58.83;37.67;;;;;;;-1.73;100.00;102806.84;5252616;28;20025;-76
2023/01/21 05:52:34;;;;;;;61.33;38.27;;;;;;;-1.72;100.00;102811.19;5252572;28;20551;-78
2023/01/21 05:55:06;;;;;;;59.50;38.20;;;;;;;-1.74;100.00;102815.41;5252382;28;20375;-74
2023/01/21 05:57:38;;;;;;;61.80;38.43;;;;;;;-1.75;100.00;102807.69;5252081;28;20036;-81
2023/01/21 06:00:09;;;;;;;55.87;36.10;;;;;;;-1.80;100.00;102823.00;5251996;28;20395;-80
2023/01/21 06:02:41;;;;;;;51.80;33.70;;;;;;;-1.77;100.00;102828.19;5252667;28;20033;-79
2023/01/21 06:05:12;;;;;;;54.97;35.20;;;;;;;-1.93;100.00;102808.97;5251718;28;20029;-79
2023/01/21 06:07:43;;;;;;;58.73;36.70;;;;;;;-1.76;100.00;102832.47;5251303;28;20032;-74
2023/01/21 06:10:15;;;;;;;59.23;35.57;;;;;;;-1.89;100.00;102821.06;5250724;28;20371;-82
2023/01/21 06:12:52;;;;;;;58.47;36.67;;;;;;;-1.88;100.00;102827.91;5251747;28;20056;-80
2023/01/21 06:15:24;;;;;;;57.60;37.40;;;;;;;-1.79;100.00;102837.56;5251260;28;20037;-84
2023/01/21 06:17:56;;;;;;;57.73;35.10;;;;;;;-1.85;100.00;102840.00;5251943;28;20077;-74
2023/01/21 06:20:30;;;;;;;57.53;36.77;;;;;;;-1.77;100.00;102840.16;5274268;28;20032;-85
2023/01/21 06:23:02;;;;;;;58.72;36.75;;;;;;;-1.81;100.00;102849.50;5276025;28;20033;-80
2023/01/21 06:25:33;;;;;;;57.20;34.60;;;;;;;-1.80;100.00;102843.53;5273787;28;20043;-74
2023/01/21 06:28:05;;;;;;;57.77;35.60;;;;;;;-1.76;100.00;102845.34;5272567;28;20024;-85
2023/01/21 06:30:37;;;;;;;58.53;34.07;;;;;;;-1.79;100.00;102850.41;5266209;28;20111;-72
2023/01/21 06:33:08;;;;;;;62.53;38.50;;;;;;;-1.88;100.00;102850.16;5262569;28;20104;-85
2023/01/21 06:35:39;;;;;;;59.83;37.73;;;;;;;-1.87;100.00;102849.34;5254391;28;20033;-81
2023/01/21 06:38:11;;;;;;;60.23;37.17;;;;;;;-2.14;100.00;102846.09;5265255;28;20029;-80
2023/01/21 06:40:42;;;;;;;57.97;36.10;;;;;;;-1.88;100.00;102857.88;5256137;28;20124;-77
2023/01/21 06:43:13;;;;;;;62.77;37.33;;;;;;;-1.84;100.00;102876.00;5268462;28;20036;-76
2023/01/21 06:45:45;;;;;;;63.57;37.70;;;;;;;-1.87;100.00;102872.47;5269807;28;20470;-84
2023/01/21 06:48:16;;;;;;;65.07;37.57;;;;;;;-1.78;100.00;102888.09;5269179;28;20128;-83
2023/01/21 06:50:48;;;;;;;59.37;36.00;;;;;;;-1.79;100.00;102888.94;5252830;28;20691;-74
2023/01/21 06:53:19;;;;;;;57.53;35.40;;;;;;;-2.03;100.00;102889.19;5258484;28;20064;-83
2023/01/21 06:55:50;;;;;;;52.70;35.23;;;;;;;-1.83;100.00;102892.25;5264447;28;20056;-82
2023/01/21 06:58:21;;;;;;;52.33;33.23;;;;;;;-1.97;100.00;102887.63;5252031;28;20048;-70
2023/01/21 07:00:56;;;;;;;60.10;36.47;;;;;;;-1.82;100.00;102894.00;5254072;28;20040;-79
2023/01/21 07:03:28;;;;;;;;;;;;;;;-1.68;100.00;102896.03;5255008;28;20033;-74
2023/01/21 07:06:00;;;;;;;55.87;33.90;;;;;;;-1.97;100.00;102866.22;5254739;28;20348;-77
2023/01/21 07:08:31;;;;;;;64.73;38.40;;;;;;;-1.92;100.00;102898.00;5262065;28;20327;-75
2023/01/21 07:11:03;;;;;;;57.53;36.37;;;;;;;-1.87;100.00;102898.16;5273396;28;20045;-74
2023/01/21 07:13:34;;;;;;;59.27;35.67;;;;;;;-1.92;100.00;102915.16;5273267;28;20031;-84
2023/01/21 07:16:06;;;;;;;59.80;35.80;;;;;;;-2.02;100.00;102907.19;5268235;28;20039;-72
2023/01/21 07:18:37;;;;;;;58.67;35.80;;;;;;;-2.01;100.00;102908.06;5253830;28;20039;-87
2023/01/21 07:21:09;;;;;;;60.77;37.30;;;;;;;-2.01;100.00;102926.03;5254158;28;20032;-80
2023/01/21 07:23:40;;;;;;;59.60;35.83;;;;;;;-2.21;100.00;102924.66;5252574;28;20033;-74
2023/01/21 07:26:11;;;;;;;64.57;36.40;;;;;;;-1.95;100.00;102927.06;5253478;28;20048;-86
2023/01/21 07:28:43;;;;;;;64.10;37.53;;;;;;;-2.22;100.00;102922.94;5253753;28;20060;-78
2023/01/21 07:31:15;;;;;;;57.13;35.97;;;;;;;-2.00;100.00;102935.47;5252910;28;20132;-77
2023/01/21 07:33:46;;;;;;;57.77;37.67;;;;;;;-2.00;100.00;102941.50;5254880;28;20108;-83
2023/01/21 07:36:18;;;;;;;59.83;37.50;;;;;;;-1.91;100.00;102947.69;5253870;28;20037;-75
2023/01/21 07:38:49;;;;;;;54.00;35.77;;;;;;;-2.03;100.00;102951.69;5251432;28;20041;-82
2023/01/21 07:41:20;;;;;;;57.20;36.30;;;;;;;-2.05;100.00;102937.94;5244050;28;20422;-70
2023/01/21 07:43:52;;;;;;;54.40;35.27;;;;;;;-2.01;100.00;102944.03;5251877;28;20033;-83
2023/01/21 07:46:23;;;;;;;54.17;33.83;;;;;;;-1.86;100.00;102962.41;5252624;28;20081;-86
2023/01/21 07:48:54;;;;;;;58.00;36.20;;;;;;;-1.93;100.00;102963.06;5253338;28;20037;-78
2023/01/21 07:51:26;;;;;;;58.27;36.00;;;;;;;-2.02;100.00;102961.13;5253029;28;20048;-81
2023/01/21 07:53:57;;;;;;;58.83;37.27;;;;;;;-1.90;100.00;102972.56;5254046;28;20051;-81
2023/01/21 07:56:28;;;;;;;59.13;35.67;;;;;;;-2.10;100.00;102965.19;5253275;28;20025;-72
2023/01/21 07:59:00;;;;;;;61.27;36.20;;;;;;;-1.95;100.00;102978.44;5234279;28;20029;-85
2023/01/21 08:01:31;;;;;;;60.10;36.30;;;;;;;-1.92;100.00;102985.34;5261917;28;20033;-80
2023/01/21 08:04:02;;;;;;;55.30;34.93;;;;;;;-2.03;100.00;102990.22;5252401;28;20035;-71
2023/01/21 08:06:36;;;;;;;55.73;35.83;;;;;;;-1.91;100.00;102988.78;5252902;28;20029;-80
2023/01/21 08:09:08;;;;;;;64.53;35.17;;;;;;;-1.99;100.00;102998.88;5253645;28;20032;-79
2023/01/21 08:11:42;;;;;;;57.83;35.33;;;;;;;-1.90;100.00;103013.66;5265194;28;20178;-69
2023/01/21 08:14:13;;;;;;;63.57;38.03;;;;;;;-1.97;100.00;103023.75;5251596;28;20033;-78
2023/01/21 08:16:45;;;;;;;63.00;36.40;;;;;;;-1.84;100.00;103008.69;5253152;28;20395;-83
2023/01/21 08:19:16;;;;;;;65.97;38.87;;;;;;;-1.96;100.00;103020.38;5251677;28;20048;-76
2023/01/21 08:21:47;;;;;;;64.83;36.30;;;;;;;-2.12;100.00;103018.19;5254085;28;20025;-85
2023/01/21 08:24:18;;;;;;;65.67;40.43;;;;;;;-1.95;100.00;103021.22;5251543;28;20025;-85
2023/01/21 08:26:50;;;;;;;62.50;38.40;;;;;;;-1.90;100.00;103039.34;5257691;28;20035;-71
2023/01/21 08:29:21;;;;;;;63.57;38.37;;;;;;;-2.01;100.00;103042.50;5269050;28;20024;-80
2023/01/21 08:31:52;;;;;;;67.23;38.73;;;;;;;-2.12;100.00;103036.16;5266958;28;20035;-85
2023/01/21 08:34:24;;;;;;;69.30;38.90;;;;;;;-2.17;100.00;103046.31;5264043;28;20033;-74
2023/01/21 08:36:55;;;;;;;68.57;40.10;;;;;;;-2.07;100.00;103060.28;5252777;28;20493;-77
2023/01/21 08:39:27;;;;;;;71.60;39.20;;;;;;;-1.96;100.00;103060.59;5273246;28;20052;-75
2023/01/21 08:41:58;;;;;;;74.40;42.30;;;;;;;-1.93;100.00;103062.38;5260274;28;20066;-84
2023/01/21 08:44:29;;;;;;;78.97;43.70;;;;;;;-1.83;100.00;103062.69;5261968;28;20036;-84
2023/01/21 08:47:00;;;;;;;73.20;42.27;;;;;;;-1.92;100.00;103061.56;5265169;28;20036;-77
2023/01/21 08:49:32;;;;;;;76.73;44.80;;;;;;;-2.11;100.00;103071.31;5251773;28;20153;-70
2023/01/21 08:52:03;;;;;;;76.53;42.13;;;;;;;-2.15;100.00;103069.44;5250169;28;20024;-74
2023/01/21 08:54:34;;;;;;;74.20;41.77;;;;;;;-2.09;100.00;103064.50;5270726;28;20036;-77
2023/01/21 08:57:06;;;;;;;79.00;43.90;;;;;;;-2.17;100.00;103078.81;5265792;28;20123;-84
2023/01/21 08:59:38;;;;;;;79.50;43.80;;;;;;;-2.23;100.00;103087.19;5271244;28;20072;-77
2023/01/21 09:02:10;;;;;;;80.50;43.53;;;;;;;-2.11;100.00;103092.69;5250894;28;20025;-82
2023/01/21 09:04:41;;;;;;;84.73;42.93;;;;;;;-2.23;100.00;103090.63;5252948;28;20120;-82
2023/01/21 09:07:13;;;;;;;89.00;44.83;;;;;;;-2.36;100.00;103083.38;5252601;28;20570;-79
2023/01/21 09:09:46;;;;;;;86.47;45.23;;;;;;;-2.20;100.00;103098.41;5251362;28;20487;-77
2023/01/21 09:12:17;;;;;;;86.13;44.00;;;;;;;-2.27;100.00;103093.91;5250650;28;20087;-74
2023/01/21 09:14:49;;;;;;;87.87;48.33;;;;;;;-2.22;100.00;103105.22;5250200;28;20033;-76
2023/01/21 09:17:21;;;;;;;88.63;47.23;;;;;;;-2.21;100.00;103104.38;5249631;28;20035;-76
2023/01/21 09:19:52;;;;;;;86.83;46.20;;;;;;;-2.12;100.00;103105.50;5249731;28;20652;-77
2023/01/21 09:22:24;;;;;;;79.87;44.20;;;;;;;-2.15;100.00;103097.69;5251652;28;20112;-77
2023/01/21 09:24:55;;;;;;;84.17;44.40;;;;;;;-1.97;100.00;103099.94;5250371;28;20016;-76
2023/01/21 09:27:27;;;;;;;83.83;46.40;;;;;;;-1.89;100.00;103095.03;5248843;28;20384;-77
2023/01/21 09:29:58;;;;;;;86.57;44.40;;;;;;;-1.87;100.00;103101.94;5249054;28;20028;-80
2023/01/21 09:32:29;;;;;;;81.00;44.23;;;;;;;-1.90;100.00;103096.72;5252120;28;20048;-72
2023/01/21 09:35:01;;;;;;;83.77;46.33;;;;;;;-2.03;100.00;103115.16;5252723;28;20072;-78
2023/01/21 09:37:33;;;;;;;87.87;45.43;;;;;;;-2.19;100.00;103113.00;5244588;28;20033;-71
2023/01/21 09:40:05;;;;;;;81.83;42.13;;;;;;;-2.22;100.00;103120.63;5251780;28;20021;-76
2023/01/21 09:42:41;;;;;;;93.13;45.90;;;;;;;-2.27;100.00;103121.31;5252323;28;20029;-82
2023/01/21 09:45:14;;;;;;;91.60;43.63;;;;;;;-2.08;100.00;103127.88;5250523;28;20017;-75
2023/01/21 09:47:48;;;;;;;88.07;44.23;;;;;;;-2.13;100.00;103132.84;5250450;28;20053;-73
2023/01/21 09:50:22;;;;;;;92.15;42.67;;;;;;;-1.93;100.00;103129.16;5249304;28;20279;-77
2023/01/21 09:53:02;;;;;;;86.83;43.63;;;;;;;-1.84;100.00;103144.84;5252144;28;20053;-73
2023/01/21 09:55:46;;;;;;;84.27;44.53;;;;;;;-1.81;100.00;103147.50;5248707;28;20319;-76
2023/01/21 09:58:31;;;;;;;88.60;42.97;;;;;;;-1.65;100.00;103153.09;5250440;28;20032;-74
2023/01/21 10:01:02;;;;;;;;;;;;;;;-1.55;100.00;103149.94;5260941;28;20828;-74
2023/01/21 10:03:36;;;;;;;92.67;44.53;;;;;;;-1.82;100.00;103156.03;5257088;28;19919;-76
2023/01/21 10:06:25;;;;;;;85.00;41.63;;;;;;;-1.74;100.00;103163.97;5256121;28;20029;-74
2023/01/21 10:09:05;;;;;;;87.97;42.03;;;;;;;-1.86;100.00;103169.59;5256954;28;20040;-76
2023/01/21 10:11:55;;;;;;;91.43;46.20;;;;;;;-1.96;100.00;103171.03;5271667;28;20305;-73
2023/01/21 10:14:58;;;;;;;94.60;46.40;;;;;;;-2.06;100.00;103149.34;5252794;28;20048;-78
2023/01/21 10:17:53;;;;;;;94.30;43.97;;;;;;;-1.89;100.00;103174.66;5242474;28;20838;-78
2023/01/21 10:20:43;;;;;;;88.40;41.87;;;;;;;-1.96;100.00;103174.47;5244656;28;20087;-73
2023/01/21 10:23:26;;;;;;;93.70;48.43;;;;;;;-1.95;100.00;103178.78;5244527;28;20033;-75
2023/01/21 10:26:04;;;;;;;92.60;44.10;;;;;;;-1.85;100.00;103182.50;5243141;28;20060;-73
2023/01/21 10:28:39;;;;;;;95.57;44.47;;;;;;;-1.64;100.00;103176.25;5241327;28;20033;-70
2023/01/21 10:31:23;;;;;;;96.70;46.67;;;;;;;-1.71;100.00;103185.47;5245467;28;20045;-74
2023/01/21 10:33:55;;;;;;;100.75;49.22;;;;;;;-1.71;100.00;103179.50;5245209;28;20487;-73
2023/01/21 10:36:35;;;;;;;92.97;44.57;;;;;;;-1.50;100.00;103181.78;5240845;28;20040;-75
2023/01/21 10:39:18;;;;;;;97.13;46.03;;;;;;;-1.48;100.00;103179.25;5243385;28;20040;-74
2023/01/21 10:42:16;;;;;;;95.30;47.00;;;;;;;-1.38;100.00;103177.84;5234822;28;20039;-73
2023/01/21 10:45:10;;;;;;;83.83;41.97;;;;;;;-1.47;100.00;103173.31;5243861;28;20542;-74
2023/01/21 10:48:00;;;;;;;90.53;43.13;;;;;;;-1.28;100.00;103171.25;5237832;28;20048;-75
2023/01/21 10:50:56;;;;;;;96.43;46.83;;;;;;;-1.14;100.00;103171.63;5243988;28;20033;-73
2023/01/21 10:53:56;;;;;;;98.67;46.93;;;;;;;-1.16;100.00;103152.72;5244425;28;20128;-71
2023/01/21 10:57:11;;;;;;;94.17;45.00;;;;;;;-1.16;100.00;103160.44;5244385;28;20378;-72
2023/01/21 10:59:43;;;;;;;90.82;45.53;;;;;;;-1.09;100.00;103144.34;5244328;28;20110;-70
2023/01/21 11:02:41;;;;;;;93.50;45.63;;;;;;;-0.93;100.00;103144.75;5235855;28;20762;-72
2023/01/21 11:05:13;;;;;;;91.80;48.20;;;;;;;-0.91;100.00;103145.66;5235912;28;20033;-73
2023/01/21 11:07:46;;;;;;;95.00;48.13;;;;;;;-0.81;100.00;103155.34;5242648;28;20041;-73
2023/01/21 11:10:24;;;;;;;91.63;45.10;;;;;;;-0.92;100.00;103146.47;5240215;28;20421;-77
2023/01/21 11:12:56;;;;;;;89.87;44.50;;;;;;;-0.83;100.00;103145.84;5243683;28;20084;-71
2023/01/21 11:15:32;;;;;;;84.67;40.63;;;;;;;-0.85;100.00;103153.50;5245012;28;20116;-73
2023/01/21 11:18:30;;;;;;;85.10;43.80;;;;;;;-0.69;100.00;103148.75;5242491;28;20037;-75
2023/01/21 11:21:23;;;;;;;95.90;46.37;;;;;;;-0.61;100.00;103152.38;5243288;28;20038;-72
2023/01/21 11:24:03;;;;;;;84.37;44.37;;;;;;;-0.59;100.00;103150.72;5243133;28;20071;-78
2023/01/21 11:26:35;;;;;;;86.13;42.53;;;;;;;-0.60;100.00;103143.84;5243428;28;20864;-77
2023/01/21 11:29:09;;;;;;;87.70;42.90;;;;;;;-0.52;100.00;103157.78;5243440;28;20068;-82
2023/01/21 11:31:44;;;;;;;87.97;43.85;;;;;;;-0.51;100.00;103154.34;5237341;28;20696;-80
2023/01/21 11:34:21;;;;;;;89.97;44.08;;;;;;;-0.49;100.00;103152.69;5241374;28;20025;-75
2023/01/21 11:37:20;;;;;;;80.27;43.00;;;;;;;-0.52;100.00;103147.47;5245948;28;20044;-75
2023/01/21 11:40:02;;;;;;;83.23;42.50;;;;;;;-0.35;100.00;103148.72;5238042;28;20118;-76